sensor_id;sensor_type;location;lat;lon;timestamp;P1;durP1;ratioP1;P2;durP2;ratioP2
2868;SDS011;1442;47.448;8.582;2023-08-12T00:43:57;5.95;;;4.97;;
2868;SDS011;1442;47.448;8.582;2023-08-12T00:46:24;8.45;;;4.35;;
2868;SDS011;1442;47.448;8.582;2023-08-12T00:48:51;6.20;;;4.57;;
2868;SDS011;1442;47.448;8.582;2023-08-12T00:51:18;7.85;;;4.80;;
2868;SDS011;1442;47.448;8.582;2023-08-12T00:53:46;5.60;;;4.47;;
2868;SDS011;1442;47.448;8.582;2023-08-12T00:56:13;8.93;;;4.75;;
2868;SDS011;1442;47.448;8.582;2023-08-12T00:58:40;8.43;;;4.55;;
2868;SDS011;1442;47.448;8.582;2023-08-12T01:01:09;10.40;;;4.93;;
2868;SDS011;1442;47.448;8.582;2023-08-12T01:03:36;11.30;;;5.32;;
2868;SDS011;1442;47.448;8.582;2023-08-12T01:06:03;6.22;;;4.65;;
2868;SDS011;1442;47.448;8.582;2023-08-12T01:08:30;6.50;;;4.75;;
2868;SDS011;1442;47.448;8.582;2023-08-12T01:11:00;9.18;;;4.80;;
2868;SDS011;1442;47.448;8.582;2023-08-12T01:13:29;7.32;;;4.55;;
2868;SDS011;1442;47.448;8.582;2023-08-12T01:15:59;8.48;;;4.93;;
2868;SDS011;1442;47.448;8.582;2023-08-12T01:18:30;7.28;;;4.95;;
2868;SDS011;1442;47.448;8.582;2023-08-12T01:20:57;10.98;;;4.75;;
2868;SDS011;1442;47.448;8.582;2023-08-12T01:23:30;13.95;;;4.60;;
2868;SDS011;1442;47.448;8.582;2023-08-12T01:25:57;7.00;;;5.20;;
2868;SDS011;1442;47.448;8.582;2023-08-12T01:28:24;11.10;;;5.00;;
2868;SDS011;1442;47.448;8.582;2023-08-12T01:30:51;6.70;;;5.10;;
2868;SDS011;1442;47.448;8.582;2023-08-12T01:33:24;9.75;;;5.32;;
2868;SDS011;1442;47.448;8.582;2023-08-12T01:35:54;7.10;;;4.88;;
2868;SDS011;1442;47.448;8.582;2023-08-12T01:38:21;7.47;;;5.30;;
2868;SDS011;1442;47.448;8.582;2023-08-12T01:40:52;10.00;;;4.93;;
2868;SDS011;1442;47.448;8.582;2023-08-12T01:43:19;7.53;;;4.53;;
2868;SDS011;1442;47.448;8.582;2023-08-12T01:45:47;4.75;;;4.13;;
2868;SDS011;1442;47.448;8.582;2023-08-12T01:48:14;4.70;;;3.90;;
2868;SDS011;1442;47.448;8.582;2023-08-12T01:50:41;6.63;;;4.93;;
2868;SDS011;1442;47.448;8.582;2023-08-12T01:53:12;7.23;;;4.63;;
2868;SDS011;1442;47.448;8.582;2023-08-12T01:55:42;7.07;;;4.30;;
2868;SDS011;1442;47.448;8.582;2023-08-12T01:58:11;5.03;;;4.20;;
2868;SDS011;1442;47.448;8.582;2023-08-12T02:00:38;6.60;;;4.68;;
2868;SDS011;1442;47.448;8.582;2023-08-12T02:03:05;10.25;;;4.78;;
2868;SDS011;1442;47.448;8.582;2023-08-12T02:05:32;11.20;;;4.15;;
2868;SDS011;1442;47.448;8.582;2023-08-12T02:08:02;8.77;;;4.63;;
2868;SDS011;1442;47.448;8.582;2023-08-12T02:10:29;11.13;;;4.43;;
2868;SDS011;1442;47.448;8.582;2023-08-12T02:12:56;8.90;;;4.80;;
2868;SDS011;1442;47.448;8.582;2023-08-12T02:15:25;11.15;;;4.32;;
2868;SDS011;1442;47.448;8.582;2023-08-12T02:17:52;9.23;;;4.32;;
2868;SDS011;1442;47.448;8.582;2023-08-12T02:20:19;6.45;;;4.28;;
2868;SDS011;1442;47.448;8.582;2023-08-12T02:22:46;9.05;;;4.68;;
2868;SDS011;1442;47.448;8.582;2023-08-12T02:25:13;5.38;;;3.75;;
2868;SDS011;1442;47.448;8.582;2023-08-12T02:27:40;6.80;;;4.63;;
2868;SDS011;1442;47.448;8.582;2023-08-12T02:30:07;5.68;;;4.55;;
2868;SDS011;1442;47.448;8.582;2023-08-12T02:32:36;7.30;;;4.32;;
2868;SDS011;1442;47.448;8.582;2023-08-12T02:35:04;6.53;;;4.38;;
2868;SDS011;1442;47.448;8.582;2023-08-12T02:37:31;7.40;;;4.13;;
2868;SDS011;1442;47.448;8.582;2023-08-12T02:39:58;7.15;;;4.38;;
2868;SDS011;1442;47.448;8.582;2023-08-12T02:42:25;8.27;;;3.83;;
2868;SDS011;1442;47.448;8.582;2023-08-12T02:44:52;6.57;;;4.30;;
2868;SDS011;1442;47.448;8.582;2023-08-12T02:47:21;5.38;;;4.20;;
2868;SDS011;1442;47.448;8.582;2023-08-12T02:49:49;6.20;;;4.30;;
2868;SDS011;1442;47.448;8.582;2023-08-12T02:52:16;4.95;;;4.07;;
2868;SDS011;1442;47.448;8.582;2023-08-12T02:54:44;9.48;;;4.80;;
2868;SDS011;1442;47.448;8.582;2023-08-12T02:57:11;6.03;;;4.15;;
2868;SDS011;1442;47.448;8.582;2023-08-12T02:59:38;8.88;;;4.18;;
2868;SDS011;1442;47.448;8.582;2023-08-12T03:02:05;5.72;;;4.30;;
2868;SDS011;1442;47.448;8.582;2023-08-12T03:04:32;7.07;;;4.07;;
2868;SDS011;1442;47.448;8.582;2023-08-12T03:07:00;6.07;;;4.32;;
2868;SDS011;1442;47.448;8.582;2023-08-12T03:09:28;5.57;;;4.28;;
2868;SDS011;1442;47.448;8.582;2023-08-12T03:11:55;8.30;;;4.45;;
2868;SDS011;1442;47.448;8.582;2023-08-12T03:14:26;9.93;;;5.50;;
2868;SDS011;1442;47.448;8.582;2023-08-12T03:16:53;6.35;;;4.03;;
2868;SDS011;1442;47.448;8.582;2023-08-12T03:19:20;9.65;;;4.60;;
2868;SDS011;1442;47.448;8.582;2023-08-12T03:21:47;8.05;;;3.83;;
2868;SDS011;1442;47.448;8.582;2023-08-12T03:24:16;8.20;;;4.47;;
2868;SDS011;1442;47.448;8.582;2023-08-12T03:26:43;7.55;;;4.35;;
2868;SDS011;1442;47.448;8.582;2023-08-12T03:29:10;9.00;;;4.32;;
2868;SDS011;1442;47.448;8.582;2023-08-12T03:31:37;8.68;;;4.45;;
2868;SDS011;1442;47.448;8.582;2023-08-12T03:34:04;6.53;;;3.97;;
2868;SDS011;1442;47.448;8.582;2023-08-12T03:36:31;6.40;;;4.50;;
2868;SDS011;1442;47.448;8.582;2023-08-12T03:38:58;7.13;;;4.07;;
2868;SDS011;1442;47.448;8.582;2023-08-12T03:41:27;6.75;;;4.47;;
2868;SDS011;1442;47.448;8.582;2023-08-12T03:43:55;9.43;;;4.95;;
2868;SDS011;1442;47.448;8.582;2023-08-12T03:46:22;11.45;;;5.18;;
2868;SDS011;1442;47.448;8.582;2023-08-12T03:48:50;7.88;;;5.13;;
2868;SDS011;1442;47.448;8.582;2023-08-12T03:51:17;7.88;;;4.65;;
2868;SDS011;1442;47.448;8.582;2023-08-12T03:53:44;5.70;;;4.57;;
2868;SDS011;1442;47.448;8.582;2023-08-12T03:56:11;11.85;;;4.90;;
2868;SDS011;1442;47.448;8.582;2023-08-12T03:58:41;9.05;;;5.07;;
2868;SDS011;1442;47.448;8.582;2023-08-12T04:01:08;6.15;;;4.50;;
2868;SDS011;1442;47.448;8.582;2023-08-12T04:03:35;7.85;;;4.85;;
2868;SDS011;1442;47.448;8.582;2023-08-12T04:06:03;7.68;;;4.70;;
2868;SDS011;1442;47.448;8.582;2023-08-12T04:08:30;8.70;;;4.72;;
2868;SDS011;1442;47.448;8.582;2023-08-12T04:10:58;8.27;;;4.70;;
2868;SDS011;1442;47.448;8.582;2023-08-12T04:13:25;5.60;;;4.32;;
2868;SDS011;1442;47.448;8.582;2023-08-12T04:15:54;8.43;;;4.80;;
2868;SDS011;1442;47.448;8.582;2023-08-12T04:18:21;5.97;;;4.60;;
2868;SDS011;1442;47.448;8.582;2023-08-12T04:20:49;9.50;;;5.07;;
2868;SDS011;1442;47.448;8.582;2023-08-12T04:23:16;6.97;;;5.35;;
2868;SDS011;1442;47.448;8.582;2023-08-12T04:25:43;8.23;;;4.78;;
2868;SDS011;1442;47.448;8.582;2023-08-12T04:28:11;8.18;;;5.30;;
2868;SDS011;1442;47.448;8.582;2023-08-12T04:30:40;6.15;;;4.75;;
2868;SDS011;1442;47.448;8.582;2023-08-12T04:33:08;9.30;;;4.97;;
2868;SDS011;1442;47.448;8.582;2023-08-12T04:35:35;6.25;;;4.82;;
2868;SDS011;1442;47.448;8.582;2023-08-12T04:38:03;6.75;;;5.13;;
2868;SDS011;1442;47.448;8.582;2023-08-12T04:40:30;5.85;;;4.68;;
2868;SDS011;1442;47.448;8.582;2023-08-12T04:42:58;6.18;;;4.85;;
2868;SDS011;1442;47.448;8.582;2023-08-12T04:45:25;5.90;;;4.85;;
2868;SDS011;1442;47.448;8.582;2023-08-12T04:47:52;6.85;;;4.78;;
2868;SDS011;1442;47.448;8.582;2023-08-12T04:50:20;6.45;;;4.80;;
2868;SDS011;1442;47.448;8.582;2023-08-12T04:52:47;5.05;;;4.43;;
2868;SDS011;1442;47.448;8.582;2023-08-12T04:55:15;8.55;;;4.60;;
2868;SDS011;1442;47.448;8.582;2023-08-12T04:57:42;8.00;;;5.15;;
2868;SDS011;1442;47.448;8.582;2023-08-12T05:00:09;10.38;;;5.18;;
2868;SDS011;1442;47.448;8.582;2023-08-12T05:02:37;8.35;;;5.10;;
2868;SDS011;1442;47.448;8.582;2023-08-12T05:05:04;7.57;;;4.82;;
2868;SDS011;1442;47.448;8.582;2023-08-12T05:07:33;12.77;;;5.32;;
2868;SDS011;1442;47.448;8.582;2023-08-12T05:10:00;9.38;;;4.88;;
2868;SDS011;1442;47.448;8.582;2023-08-12T05:12:27;6.22;;;5.00;;
2868;SDS011;1442;47.448;8.582;2023-08-12T05:14:54;8.23;;;5.15;;
2868;SDS011;1442;47.448;8.582;2023-08-12T05:17:21;11.52;;;6.15;;
2868;SDS011;1442;47.448;8.582;2023-08-12T05:19:49;7.97;;;5.05;;
2868;SDS011;1442;47.448;8.582;2023-08-12T05:22:16;9.52;;;4.85;;
2868;SDS011;1442;47.448;8.582;2023-08-12T05:24:44;6.45;;;4.75;;
2868;SDS011;1442;47.448;8.582;2023-08-12T05:27:11;11.27;;;4.88;;
2868;SDS011;1442;47.448;8.582;2023-08-12T05:29:39;5.22;;;4.60;;
2868;SDS011;1442;47.448;8.582;2023-08-12T05:32:06;8.57;;;4.93;;
2868;SDS011;1442;47.448;8.582;2023-08-12T05:34:33;7.28;;;5.00;;
2868;SDS011;1442;47.448;8.582;2023-08-12T05:37:00;7.22;;;4.35;;
2868;SDS011;1442;47.448;8.582;2023-08-12T05:39:27;5.47;;;4.80;;
2868;SDS011;1442;47.448;8.582;2023-08-12T05:41:56;13.05;;;4.90;;
2868;SDS011;1442;47.448;8.582;2023-08-12T05:44:23;7.88;;;5.15;;
2868;SDS011;1442;47.448;8.582;2023-08-12T05:46:50;12.93;;;5.28;;
2868;SDS011;1442;47.448;8.582;2023-08-12T05:49:17;14.00;;;5.78;;
2868;SDS011;1442;47.448;8.582;2023-08-12T05:51:44;6.15;;;5.03;;
2868;SDS011;1442;47.448;8.582;2023-08-12T05:54:12;8.18;;;5.75;;
2868;SDS011;1442;47.448;8.582;2023-08-12T05:56:39;10.23;;;5.82;;
2868;SDS011;1442;47.448;8.582;2023-08-12T05:59:07;10.73;;;5.68;;
2868;SDS011;1442;47.448;8.582;2023-08-12T06:01:34;7.38;;;5.30;;
2868;SDS011;1442;47.448;8.582;2023-08-12T06:04:02;7.72;;;5.45;;
2868;SDS011;1442;47.448;8.582;2023-08-12T06:06:29;12.65;;;5.75;;
2868;SDS011;1442;47.448;8.582;2023-08-12T06:08:56;6.75;;;5.93;;
2868;SDS011;1442;47.448;8.582;2023-08-12T06:11:23;9.85;;;5.85;;
2868;SDS011;1442;47.448;8.582;2023-08-12T06:13:50;7.68;;;5.97;;
2868;SDS011;1442;47.448;8.582;2023-08-12T06:16:19;6.60;;;5.75;;
2868;SDS011;1442;47.448;8.582;2023-08-12T06:18:46;12.95;;;6.50;;
2868;SDS011;1442;47.448;8.582;2023-08-12T06:21:13;8.82;;;6.10;;
2868;SDS011;1442;47.448;8.582;2023-08-12T06:23:40;7.63;;;6.00;;
2868;SDS011;1442;47.448;8.582;2023-08-12T06:26:08;7.35;;;5.60;;
2868;SDS011;1442;47.448;8.582;2023-08-12T06:28:35;6.78;;;5.78;;
2868;SDS011;1442;47.448;8.582;2023-08-12T06:31:02;8.98;;;6.40;;
2868;SDS011;1442;47.448;8.582;2023-08-12T06:33:30;7.78;;;6.20;;
2868;SDS011;1442;47.448;8.582;2023-08-12T06:35:57;6.50;;;5.80;;
2868;SDS011;1442;47.448;8.582;2023-08-12T06:38:25;9.30;;;6.60;;
2868;SDS011;1442;47.448;8.582;2023-08-12T06:40:52;10.60;;;5.93;;
2868;SDS011;1442;47.448;8.582;2023-08-12T06:43:19;7.95;;;6.10;;
2868;SDS011;1442;47.448;8.582;2023-08-12T06:45:46;9.32;;;6.50;;
2868;SDS011;1442;47.448;8.582;2023-08-12T06:48:13;13.43;;;6.18;;
2868;SDS011;1442;47.448;8.582;2023-08-12T06:50:42;13.60;;;7.03;;
2868;SDS011;1442;47.448;8.582;2023-08-12T06:53:09;9.25;;;6.28;;
2868;SDS011;1442;47.448;8.582;2023-08-12T06:55:36;8.27;;;6.30;;
2868;SDS011;1442;47.448;8.582;2023-08-12T06:58:03;16.05;;;6.13;;
2868;SDS011;1442;47.448;8.582;2023-08-12T07:00:30;7.60;;;6.03;;
2868;SDS011;1442;47.448;8.582;2023-08-12T07:02:57;14.02;;;7.13;;
2868;SDS011;1442;47.448;8.582;2023-08-12T07:05:24;6.90;;;5.35;;
2868;SDS011;1442;47.448;8.582;2023-08-12T07:07:53;12.75;;;6.93;;
2868;SDS011;1442;47.448;8.582;2023-08-12T07:10:20;8.05;;;6.05;;
2868;SDS011;1442;47.448;8.582;2023-08-12T07:12:47;9.85;;;6.07;;
2868;SDS011;1442;47.448;8.582;2023-08-12T07:15:14;10.57;;;6.18;;
2868;SDS011;1442;47.448;8.582;2023-08-12T07:17:41;11.50;;;6.72;;
2868;SDS011;1442;47.448;8.582;2023-08-12T07:20:09;11.48;;;6.18;;
2868;SDS011;1442;47.448;8.582;2023-08-12T07:22:36;10.35;;;6.90;;
2868;SDS011;1442;47.448;8.582;2023-08-12T07:25:05;10.55;;;6.50;;
2868;SDS011;1442;47.448;8.582;2023-08-12T07:27:32;7.18;;;6.10;;
2868;SDS011;1442;47.448;8.582;2023-08-12T07:29:59;8.80;;;6.35;;
2868;SDS011;1442;47.448;8.582;2023-08-12T07:34:53;10.95;;;6.63;;
2868;SDS011;1442;47.448;8.582;2023-08-12T07:37:20;9.45;;;6.90;;
2868;SDS011;1442;47.448;8.582;2023-08-12T07:39:47;13.30;;;6.35;;
2868;SDS011;1442;47.448;8.582;2023-08-12T07:49:37;7.25;;;5.82;;
2868;SDS011;1442;47.448;8.582;2023-08-12T07:56:58;12.77;;;6.07;;
2868;SDS011;1442;47.448;8.582;2023-08-12T08:01:52;6.85;;;5.47;;
2868;SDS011;1442;47.448;8.582;2023-08-12T08:04:19;7.20;;;5.05;;
2868;SDS011;1442;47.448;8.582;2023-08-12T08:06:48;6.65;;;5.30;;
2868;SDS011;1442;47.448;8.582;2023-08-12T08:09:15;6.88;;;5.05;;
2868;SDS011;1442;47.448;8.582;2023-08-12T08:11:42;12.38;;;5.60;;
2868;SDS011;1442;47.448;8.582;2023-08-12T08:14:09;9.65;;;4.93;;
2868;SDS011;1442;47.448;8.582;2023-08-12T08:19:05;6.55;;;4.97;;
2868;SDS011;1442;47.448;8.582;2023-08-12T08:21:34;5.65;;;4.63;;
2868;SDS011;1442;47.448;8.582;2023-08-12T08:24:03;7.75;;;4.93;;
2868;SDS011;1442;47.448;8.582;2023-08-12T08:26:30;6.18;;;5.13;;
2868;SDS011;1442;47.448;8.582;2023-08-12T08:28:57;8.50;;;4.75;;
2868;SDS011;1442;47.448;8.582;2023-08-12T08:31:24;8.05;;;5.07;;
2868;SDS011;1442;47.448;8.582;2023-08-12T08:33:51;7.53;;;4.70;;
2868;SDS011;1442;47.448;8.582;2023-08-12T08:36:18;7.25;;;5.38;;
2868;SDS011;1442;47.448;8.582;2023-08-12T08:38:45;7.68;;;4.97;;
2868;SDS011;1442;47.448;8.582;2023-08-12T08:41:14;9.15;;;5.40;;
2868;SDS011;1442;47.448;8.582;2023-08-12T08:43:43;7.78;;;5.07;;
2868;SDS011;1442;47.448;8.582;2023-08-12T08:46:10;6.80;;;4.70;;
2868;SDS011;1442;47.448;8.582;2023-08-12T08:48:37;8.00;;;5.17;;
2868;SDS011;1442;47.448;8.582;2023-08-12T08:51:05;6.38;;;4.63;;
2868;SDS011;1442;47.448;8.582;2023-08-12T08:53:33;6.97;;;5.10;;
2868;SDS011;1442;47.448;8.582;2023-08-12T08:56:00;9.25;;;5.40;;
2868;SDS011;1442;47.448;8.582;2023-08-12T08:58:29;7.22;;;4.90;;
2868;SDS011;1442;47.448;8.582;2023-08-12T09:00:56;5.82;;;5.03;;
2868;SDS011;1442;47.448;8.582;2023-08-12T09:03:23;6.50;;;5.10;;
2868;SDS011;1442;47.448;8.582;2023-08-12T09:05:51;5.78;;;5.15;;
2868;SDS011;1442;47.448;8.582;2023-08-12T09:08:20;5.80;;;5.18;;
2868;SDS011;1442;47.448;8.582;2023-08-12T09:10:47;6.13;;;5.10;;
2868;SDS011;1442;47.448;8.582;2023-08-12T09:13:15;7.57;;;5.22;;
2868;SDS011;1442;47.448;8.582;2023-08-12T09:15:44;6.82;;;4.80;;
2868;SDS011;1442;47.448;8.582;2023-08-12T09:18:11;7.50;;;5.40;;
2868;SDS011;1442;47.448;8.582;2023-08-12T09:20:41;7.43;;;4.80;;
2868;SDS011;1442;47.448;8.582;2023-08-12T09:23:09;9.95;;;5.18;;
2868;SDS011;1442;47.448;8.582;2023-08-12T09:25:41;8.23;;;5.00;;
2868;SDS011;1442;47.448;8.582;2023-08-12T09:28:09;7.72;;;5.00;;
2868;SDS011;1442;47.448;8.582;2023-08-12T09:30:36;5.40;;;4.63;;
2868;SDS011;1442;47.448;8.582;2023-08-12T09:33:06;6.95;;;5.25;;
2868;SDS011;1442;47.448;8.582;2023-08-12T09:35:33;6.90;;;4.90;;
2868;SDS011;1442;47.448;8.582;2023-08-12T09:38:02;6.67;;;4.77;;
2868;SDS011;1442;47.448;8.582;2023-08-12T09:40:30;9.13;;;4.53;;
2868;SDS011;1442;47.448;8.582;2023-08-12T09:42:57;7.57;;;5.05;;
2868;SDS011;1442;47.448;8.582;2023-08-12T09:45:24;9.43;;;5.03;;
2868;SDS011;1442;47.448;8.582;2023-08-12T09:47:52;5.13;;;4.32;;
2868;SDS011;1442;47.448;8.582;2023-08-12T09:50:22;7.57;;;4.15;;
2868;SDS011;1442;47.448;8.582;2023-08-12T09:52:49;5.97;;;4.40;;
2868;SDS011;1442;47.448;8.582;2023-08-12T09:55:17;6.17;;;4.90;;
2868;SDS011;1442;47.448;8.582;2023-08-12T09:57:47;7.90;;;4.80;;
2868;SDS011;1442;47.448;8.582;2023-08-12T10:00:15;5.35;;;4.65;;
2868;SDS011;1442;47.448;8.582;2023-08-12T10:02:43;8.40;;;4.32;;
2868;SDS011;1442;47.448;8.582;2023-08-12T10:05:12;6.72;;;4.75;;
2868;SDS011;1442;47.448;8.582;2023-08-12T10:07:41;7.18;;;4.57;;
2868;SDS011;1442;47.448;8.582;2023-08-12T10:10:08;6.40;;;4.15;;
2868;SDS011;1442;47.448;8.582;2023-08-12T10:12:36;5.57;;;4.50;;
2868;SDS011;1442;47.448;8.582;2023-08-12T10:15:03;6.47;;;4.17;;
2868;SDS011;1442;47.448;8.582;2023-08-12T10:17:32;5.50;;;3.80;;
2868;SDS011;1442;47.448;8.582;2023-08-12T10:20:00;5.47;;;3.67;;
2868;SDS011;1442;47.448;8.582;2023-08-12T10:22:29;5.78;;;3.85;;
2868;SDS011;1442;47.448;8.582;2023-08-12T10:24:58;7.03;;;3.85;;
2868;SDS011;1442;47.448;8.582;2023-08-12T10:27:25;5.07;;;3.65;;
2868;SDS011;1442;47.448;8.582;2023-08-12T10:29:52;4.13;;;3.58;;
2868;SDS011;1442;47.448;8.582;2023-08-12T10:32:22;4.45;;;3.60;;
2868;SDS011;1442;47.448;8.582;2023-08-12T10:34:53;4.68;;;3.45;;
2868;SDS011;1442;47.448;8.582;2023-08-12T10:37:21;7.90;;;3.97;;
2868;SDS011;1442;47.448;8.582;2023-08-12T10:39:51;5.22;;;2.88;;
2868;SDS011;1442;47.448;8.582;2023-08-12T10:45:03;5.50;;;3.28;;
2868;SDS011;1442;47.448;8.582;2023-08-12T10:47:31;4.72;;;3.38;;
2868;SDS011;1442;47.448;8.582;2023-08-12T10:50:01;3.60;;;2.72;;
2868;SDS011;1442;47.448;8.582;2023-08-12T10:52:28;3.80;;;2.85;;
2868;SDS011;1442;47.448;8.582;2023-08-12T10:55:01;4.15;;;3.20;;
2868;SDS011;1442;47.448;8.582;2023-08-12T10:57:42;7.43;;;3.63;;
2868;SDS011;1442;47.448;8.582;2023-08-12T11:00:11;5.53;;;3.50;;
2868;SDS011;1442;47.448;8.582;2023-08-12T11:02:40;5.68;;;3.58;;
2868;SDS011;1442;47.448;8.582;2023-08-12T11:05:11;5.20;;;3.28;;
2868;SDS011;1442;47.448;8.582;2023-08-12T11:07:38;6.00;;;3.65;;
2868;SDS011;1442;47.448;8.582;2023-08-12T11:10:09;5.05;;;3.35;;
2868;SDS011;1442;47.448;8.582;2023-08-12T11:12:37;5.13;;;3.30;;
2868;SDS011;1442;47.448;8.582;2023-08-12T11:15:06;6.28;;;3.67;;
2868;SDS011;1442;47.448;8.582;2023-08-12T11:17:35;8.03;;;3.50;;
2868;SDS011;1442;47.448;8.582;2023-08-12T11:20:04;6.53;;;3.92;;
2868;SDS011;1442;47.448;8.582;2023-08-12T11:22:32;6.47;;;3.65;;
2868;SDS011;1442;47.448;8.582;2023-08-12T11:25:00;6.45;;;3.90;;
2868;SDS011;1442;47.448;8.582;2023-08-12T11:27:27;8.70;;;4.17;;
2868;SDS011;1442;47.448;8.582;2023-08-12T11:29:54;7.75;;;4.20;;
2868;SDS011;1442;47.448;8.582;2023-08-12T11:32:22;8.35;;;4.35;;
2868;SDS011;1442;47.448;8.582;2023-08-12T11:34:50;7.63;;;4.57;;
2868;SDS011;1442;47.448;8.582;2023-08-12T11:37:17;7.60;;;4.15;;
2868;SDS011;1442;47.448;8.582;2023-08-12T11:39:44;7.95;;;4.05;;
2868;SDS011;1442;47.448;8.582;2023-08-12T11:42:12;6.57;;;4.00;;
2868;SDS011;1442;47.448;8.582;2023-08-12T11:44:39;6.28;;;3.83;;
2868;SDS011;1442;47.448;8.582;2023-08-12T11:47:07;5.80;;;4.15;;
2868;SDS011;1442;47.448;8.582;2023-08-12T11:49:34;5.57;;;4.18;;
2868;SDS011;1442;47.448;8.582;2023-08-12T11:52:03;8.68;;;4.38;;
2868;SDS011;1442;47.448;8.582;2023-08-12T11:54:30;7.15;;;4.38;;
2868;SDS011;1442;47.448;8.582;2023-08-12T11:56:57;6.00;;;4.40;;
2868;SDS011;1442;47.448;8.582;2023-08-12T11:59:25;6.85;;;3.97;;
2868;SDS011;1442;47.448;8.582;2023-08-12T12:01:52;5.05;;;3.65;;
2868;SDS011;1442;47.448;8.582;2023-08-12T12:04:21;5.75;;;3.63;;
2868;SDS011;1442;47.448;8.582;2023-08-12T12:06:48;6.72;;;3.78;;
2868;SDS011;1442;47.448;8.582;2023-08-12T12:09:17;6.03;;;3.90;;
2868;SDS011;1442;47.448;8.582;2023-08-12T12:11:45;7.32;;;4.18;;
2868;SDS011;1442;47.448;8.582;2023-08-12T12:14:12;7.13;;;4.00;;
2868;SDS011;1442;47.448;8.582;2023-08-12T12:16:40;7.43;;;4.22;;
2868;SDS011;1442;47.448;8.582;2023-08-12T12:19:13;7.07;;;4.38;;
2868;SDS011;1442;47.448;8.582;2023-08-12T12:21:41;6.15;;;3.85;;
2868;SDS011;1442;47.448;8.582;2023-08-12T12:24:08;7.68;;;4.28;;
2868;SDS011;1442;47.448;8.582;2023-08-12T12:26:37;5.73;;;3.70;;
2868;SDS011;1442;47.448;8.582;2023-08-12T12:29:04;7.55;;;4.10;;
2868;SDS011;1442;47.448;8.582;2023-08-12T12:31:32;9.65;;;4.38;;
2868;SDS011;1442;47.448;8.582;2023-08-12T12:34:00;5.82;;;4.15;;
2868;SDS011;1442;47.448;8.582;2023-08-12T12:36:27;6.47;;;4.15;;
2868;SDS011;1442;47.448;8.582;2023-08-12T12:38:54;6.70;;;4.32;;
2868;SDS011;1442;47.448;8.582;2023-08-12T12:41:21;6.75;;;3.85;;
2868;SDS011;1442;47.448;8.582;2023-08-12T12:43:49;4.70;;;3.57;;
2868;SDS011;1442;47.448;8.582;2023-08-12T12:46:17;5.80;;;3.40;;
2868;SDS011;1442;47.448;8.582;2023-08-12T12:48:44;11.65;;;4.47;;
2868;SDS011;1442;47.448;8.582;2023-08-12T12:51:11;5.05;;;3.30;;
2868;SDS011;1442;47.448;8.582;2023-08-12T12:53:38;4.93;;;3.60;;
2868;SDS011;1442;47.448;8.582;2023-08-12T12:56:05;5.25;;;3.42;;
2868;SDS011;1442;47.448;8.582;2023-08-12T12:58:33;6.13;;;3.55;;
2868;SDS011;1442;47.448;8.582;2023-08-12T13:01:02;5.38;;;3.50;;
2868;SDS011;1442;47.448;8.582;2023-08-12T13:03:29;5.17;;;3.60;;
2868;SDS011;1442;47.448;8.582;2023-08-12T13:05:56;5.97;;;3.28;;
2868;SDS011;1442;47.448;8.582;2023-08-12T13:08:24;4.10;;;3.00;;
2868;SDS011;1442;47.448;8.582;2023-08-12T13:10:51;5.97;;;3.30;;
2868;SDS011;1442;47.448;8.582;2023-08-12T13:13:18;6.72;;;3.13;;
2868;SDS011;1442;47.448;8.582;2023-08-12T13:15:46;3.05;;;2.63;;
2868;SDS011;1442;47.448;8.582;2023-08-12T13:18:15;6.15;;;2.88;;
2868;SDS011;1442;47.448;8.582;2023-08-12T13:20:42;3.40;;;2.72;;
2868;SDS011;1442;47.448;8.582;2023-08-12T13:23:09;4.35;;;2.50;;
2868;SDS011;1442;47.448;8.582;2023-08-12T13:25:37;4.67;;;2.90;;
2868;SDS011;1442;47.448;8.582;2023-08-12T13:28:04;5.82;;;2.85;;
2868;SDS011;1442;47.448;8.582;2023-08-12T13:30:31;4.10;;;2.75;;
2868;SDS011;1442;47.448;8.582;2023-08-12T13:32:59;3.38;;;2.60;;
2868;SDS011;1442;47.448;8.582;2023-08-12T13:35:27;3.55;;;2.80;;
2868;SDS011;1442;47.448;8.582;2023-08-12T13:37:55;4.18;;;3.00;;
2868;SDS011;1442;47.448;8.582;2023-08-12T13:40:22;3.35;;;2.58;;
2868;SDS011;1442;47.448;8.582;2023-08-12T13:42:49;4.03;;;2.35;;
2868;SDS011;1442;47.448;8.582;2023-08-12T13:45:16;3.25;;;2.60;;
2868;SDS011;1442;47.448;8.582;2023-08-12T13:47:43;6.22;;;2.72;;
2868;SDS011;1442;47.448;8.582;2023-08-12T13:50:10;4.43;;;3.00;;
2868;SDS011;1442;47.448;8.582;2023-08-12T13:52:39;5.40;;;2.60;;
2868;SDS011;1442;47.448;8.582;2023-08-12T13:55:07;10.52;;;2.95;;
2868;SDS011;1442;47.448;8.582;2023-08-12T13:57:34;3.30;;;2.90;;
2868;SDS011;1442;47.448;8.582;2023-08-12T14:00:01;4.50;;;2.90;;
2868;SDS011;1442;47.448;8.582;2023-08-12T14:02:30;3.88;;;2.83;;
2868;SDS011;1442;47.448;8.582;2023-08-12T14:04:58;4.63;;;3.28;;
2868;SDS011;1442;47.448;8.582;2023-08-12T14:07:25;4.50;;;3.03;;
2868;SDS011;1442;47.448;8.582;2023-08-12T14:09:53;3.78;;;2.97;;
2868;SDS011;1442;47.448;8.582;2023-08-12T14:12:20;3.85;;;2.90;;
2868;SDS011;1442;47.448;8.582;2023-08-12T14:14:47;5.37;;;3.10;;
2868;SDS011;1442;47.448;8.582;2023-08-12T14:17:14;5.93;;;3.00;;
2868;SDS011;1442;47.448;8.582;2023-08-12T14:19:43;5.68;;;3.38;;
2868;SDS011;1442;47.448;8.582;2023-08-12T14:22:10;4.75;;;3.17;;
2868;SDS011;1442;47.448;8.582;2023-08-12T14:24:38;5.77;;;3.03;;
2868;SDS011;1442;47.448;8.582;2023-08-12T14:27:06;5.85;;;3.22;;
2868;SDS011;1442;47.448;8.582;2023-08-12T14:29:33;5.43;;;3.13;;
2868;SDS011;1442;47.448;8.582;2023-08-12T14:32:00;5.80;;;3.15;;
2868;SDS011;1442;47.448;8.582;2023-08-12T14:34:27;7.80;;;3.28;;
2868;SDS011;1442;47.448;8.582;2023-08-12T14:36:55;5.82;;;3.33;;
2868;SDS011;1442;47.448;8.582;2023-08-12T14:39:22;3.97;;;3.13;;
2868;SDS011;1442;47.448;8.582;2023-08-12T14:41:49;8.15;;;3.50;;
2868;SDS011;1442;47.448;8.582;2023-08-12T14:44:17;5.50;;;3.17;;
2868;SDS011;1442;47.448;8.582;2023-08-12T14:46:45;6.25;;;3.60;;
2868;SDS011;1442;47.448;8.582;2023-08-12T14:49:12;5.13;;;3.40;;
2868;SDS011;1442;47.448;8.582;2023-08-12T14:51:41;6.70;;;3.55;;
2868;SDS011;1442;47.448;8.582;2023-08-12T14:54:08;4.82;;;3.67;;
2868;SDS011;1442;47.448;8.582;2023-08-12T14:56:35;5.23;;;3.60;;
2868;SDS011;1442;47.448;8.582;2023-08-12T14:59:02;5.57;;;3.30;;
2868;SDS011;1442;47.448;8.582;2023-08-12T15:01:31;6.45;;;3.38;;
2868;SDS011;1442;47.448;8.582;2023-08-12T15:03:58;5.50;;;3.15;;
2868;SDS011;1442;47.448;8.582;2023-08-12T15:06:25;6.13;;;3.30;;
2868;SDS011;1442;47.448;8.582;2023-08-12T15:08:53;5.60;;;3.47;;
2868;SDS011;1442;47.448;8.582;2023-08-12T15:11:20;6.18;;;3.75;;
2868;SDS011;1442;47.448;8.582;2023-08-12T15:13:47;5.93;;;3.60;;
2868;SDS011;1442;47.448;8.582;2023-08-12T15:16:14;6.03;;;3.57;;
2868;SDS011;1442;47.448;8.582;2023-08-12T15:18:43;6.53;;;3.85;;
2868;SDS011;1442;47.448;8.582;2023-08-12T15:21:10;6.72;;;3.75;;
2868;SDS011;1442;47.448;8.582;2023-08-12T15:23:37;7.13;;;3.80;;
2868;SDS011;1442;47.448;8.582;2023-08-12T15:26:04;5.35;;;3.80;;
2868;SDS011;1442;47.448;8.582;2023-08-12T15:28:31;5.80;;;3.67;;
2868;SDS011;1442;47.448;8.582;2023-08-12T15:30:58;6.07;;;3.80;;
2868;SDS011;1442;47.448;8.582;2023-08-12T15:33:25;7.03;;;4.18;;
2868;SDS011;1442;47.448;8.582;2023-08-12T15:35:54;6.97;;;4.15;;
2868;SDS011;1442;47.448;8.582;2023-08-12T15:38:21;6.82;;;4.28;;
2868;SDS011;1442;47.448;8.582;2023-08-12T15:40:48;8.82;;;4.60;;
2868;SDS011;1442;47.448;8.582;2023-08-12T15:43:16;6.80;;;4.50;;
2868;SDS011;1442;47.448;8.582;2023-08-12T15:45:43;6.45;;;4.15;;
2868;SDS011;1442;47.448;8.582;2023-08-12T15:48:10;6.25;;;4.05;;
2868;SDS011;1442;47.448;8.582;2023-08-12T15:50:38;7.25;;;4.38;;
2868;SDS011;1442;47.448;8.582;2023-08-12T15:53:06;11.47;;;4.50;;
2868;SDS011;1442;47.448;8.582;2023-08-12T15:55:33;6.60;;;4.20;;
2868;SDS011;1442;47.448;8.582;2023-08-12T15:58:00;7.60;;;4.13;;
2868;SDS011;1442;47.448;8.582;2023-08-12T16:00:27;8.27;;;4.47;;
2868;SDS011;1442;47.448;8.582;2023-08-12T16:02:54;7.80;;;4.30;;
2868;SDS011;1442;47.448;8.582;2023-08-12T16:05:22;4.57;;;3.83;;
2868;SDS011;1442;47.448;8.582;2023-08-12T16:07:49;6.97;;;4.20;;
2868;SDS011;1442;47.448;8.582;2023-08-12T16:10:17;6.72;;;4.53;;
2868;SDS011;1442;47.448;8.582;2023-08-12T16:12:44;6.90;;;4.18;;
2868;SDS011;1442;47.448;8.582;2023-08-12T16:15:11;5.88;;;4.63;;
2868;SDS011;1442;47.448;8.582;2023-08-12T16:17:39;7.95;;;4.30;;
2868;SDS011;1442;47.448;8.582;2023-08-12T16:20:06;7.45;;;4.40;;
2868;SDS011;1442;47.448;8.582;2023-08-12T16:22:34;6.27;;;3.70;;